createdAt,value
2023-05-17T00:00:26.625Z,7.20
2023-05-17T00:02:53.198Z,7.24
2023-05-17T00:05:19.962Z,7.22
2023-05-17T00:07:47.302Z,7.19
2023-05-17T00:10:14.109Z,7.20
2023-05-17T00:12:40.797Z,7.20
2023-05-17T00:15:08.063Z,7.17
2023-05-17T00:17:37.364Z,7.18
2023-05-17T00:20:05.436Z,7.12
2023-05-17T00:22:32.014Z,7.11
2023-05-17T00:24:58.692Z,7.09
2023-05-17T00:27:25.416Z,7.07
2023-05-17T00:29:52.158Z,7.05
2023-05-17T00:32:18.746Z,7.08
2023-05-17T00:34:45.483Z,7.10
2023-05-17T00:37:12.196Z,7.03
2023-05-17T00:39:38.766Z,7.03
2023-05-17T00:42:06.166Z,6.99
2023-05-17T00:44:32.807Z,6.94
2023-05-17T00:47:00.001Z,6.95
2023-05-17T00:49:27.157Z,6.93
2023-05-17T00:51:54.430Z,6.91
2023-05-17T00:54:22.277Z,6.87
2023-05-17T00:56:49.435Z,6.85
2023-05-17T00:59:17.768Z,6.89
2023-05-17T01:01:44.687Z,6.87
2023-05-17T01:04:12.547Z,6.86
2023-05-17T01:06:40.382Z,6.82
2023-05-17T01:09:08.300Z,6.78
2023-05-17T01:11:54.918Z,6.75
2023-05-17T01:14:21.459Z,6.74
2023-05-17T01:17:03.068Z,6.73
2023-05-17T01:19:51.415Z,6.78
2023-05-17T01:22:31.960Z,6.78
2023-05-17T01:25:07.619Z,6.77
2023-05-17T01:27:36.736Z,6.78
2023-05-17T01:30:04.134Z,6.80
2023-05-17T01:32:33.460Z,6.80
2023-05-17T01:35:00.504Z,6.81
2023-05-17T01:37:27.146Z,6.82
2023-05-17T01:39:53.890Z,6.81
2023-05-17T01:42:25.819Z,6.78
2023-05-17T01:45:04.171Z,6.75
2023-05-17T01:47:37.810Z,6.77
2023-05-17T01:50:07.186Z,6.71
2023-05-17T01:53:03.530Z,6.67
2023-05-17T01:56:15.867Z,6.64
2023-05-17T01:58:47.515Z,6.63
2023-05-17T02:01:18.199Z,6.59
2023-05-17T02:03:52.402Z,6.62
2023-05-17T02:06:19.004Z,6.61
2023-05-17T02:08:45.814Z,6.61
2023-05-17T02:11:12.755Z,6.60
2023-05-17T02:13:40.555Z,6.61
2023-05-17T02:16:07.731Z,6.55
2023-05-17T02:18:35.852Z,6.53
2023-05-17T02:21:03.861Z,6.55
2023-05-17T02:23:30.404Z,6.53
2023-05-17T02:25:57.092Z,6.51
2023-05-17T02:28:23.790Z,6.51
2023-05-17T02:30:50.393Z,6.45
2023-05-17T02:33:17.080Z,6.40
2023-05-17T02:35:43.774Z,6.39
2023-05-17T02:38:10.559Z,6.34
2023-05-17T02:40:37.144Z,6.31
2023-05-17T02:43:03.758Z,6.32
2023-05-17T02:45:30.751Z,6.28
2023-05-17T02:47:57.537Z,6.25
2023-05-17T02:50:24.120Z,6.25
2023-05-17T02:52:51.142Z,6.19
2023-05-17T02:55:18.134Z,6.17
2023-05-17T02:57:44.859Z,6.14
2023-05-17T03:00:11.943Z,6.11
2023-05-17T03:02:38.743Z,6.07
2023-05-17T03:05:06.225Z,5.98
2023-05-17T03:07:32.887Z,5.96
2023-05-17T03:09:59.757Z,5.95
2023-05-17T03:12:30.253Z,5.95
2023-05-17T03:14:57.389Z,5.90
2023-05-17T03:17:24.435Z,5.93
2023-05-17T03:19:51.438Z,5.89
2023-05-17T03:22:18.177Z,5.95
2023-05-17T03:24:45.022Z,5.94
2023-05-17T03:27:11.672Z,5.95
2023-05-17T03:29:39.197Z,5.86
2023-05-17T03:32:06.744Z,5.86
2023-05-17T03:34:33.304Z,5.87
2023-05-17T03:37:01.457Z,5.85
2023-05-17T03:39:28.080Z,5.88
2023-05-17T03:41:55.068Z,5.84
2023-05-17T03:44:22.953Z,5.85
2023-05-17T03:46:50.305Z,5.86
2023-05-17T03:49:18.014Z,5.92
2023-05-17T03:51:45.770Z,5.92
2023-05-17T03:54:12.454Z,5.90
2023-05-17T03:56:39.025Z,5.90
2023-05-17T03:59:05.761Z,5.89
2023-05-17T04:01:33.259Z,5.92
2023-05-17T04:04:01.419Z,5.98
2023-05-17T04:06:28.361Z,5.96
2023-05-17T04:08:55.371Z,5.94
2023-05-17T04:11:24.341Z,6.00
2023-05-17T04:13:51.603Z,5.95
2023-05-17T04:16:18.484Z,6.02
2023-05-17T04:18:45.779Z,6.01
2023-05-17T04:21:13.165Z,6.02
2023-05-17T04:23:40.006Z,6.03
2023-05-17T04:26:06.676Z,6.04
2023-05-17T04:28:37.910Z,6.06
2023-05-17T04:31:08.629Z,6.12
2023-05-17T04:33:36.872Z,6.14
2023-05-17T04:36:06.470Z,6.16
2023-05-17T04:38:33.888Z,6.25
2023-05-17T04:41:07.332Z,6.22
2023-05-17T04:43:36.846Z,6.27
2023-05-17T04:46:07.024Z,6.12
2023-05-17T04:48:34.283Z,6.26
2023-05-17T04:51:02.509Z,6.29
2023-05-17T04:53:29.779Z,6.41
2023-05-17T04:55:58.308Z,6.39
2023-05-17T04:58:26.759Z,6.39
2023-05-17T05:00:57.597Z,6.44
2023-05-17T05:03:24.455Z,6.45
2023-05-17T05:05:51.578Z,6.48
2023-05-17T05:08:18.463Z,6.55
2023-05-17T05:10:46.284Z,6.55
2023-05-17T05:13:14.811Z,6.63
2023-05-17T05:15:42.918Z,6.54
2023-05-17T05:18:09.642Z,6.63
2023-05-17T05:20:36.509Z,6.75
2023-05-17T05:23:06.064Z,6.66
2023-05-17T05:25:34.270Z,6.85
2023-05-17T05:28:01.608Z,6.95
2023-05-17T05:30:30.130Z,7.01
2023-05-17T05:32:56.910Z,7.23
2023-05-17T05:35:29.419Z,7.36
2023-05-17T05:37:58.262Z,7.46
2023-05-17T05:40:25.058Z,7.49
2023-05-17T05:42:52.534Z,7.70
2023-05-17T05:45:21.640Z,7.68
2023-05-17T05:47:50.780Z,7.67
2023-05-17T05:50:18.322Z,7.79
2023-05-17T05:52:46.340Z,7.71
2023-05-17T05:55:13.129Z,7.80
2023-05-17T05:57:39.926Z,7.84
2023-05-17T06:00:07.416Z,7.72
2023-05-17T06:02:40.011Z,7.72
2023-05-17T06:05:07.098Z,7.59
2023-05-17T06:07:33.927Z,7.83
2023-05-17T06:10:00.648Z,7.96
2023-05-17T06:12:27.317Z,8.16
2023-05-17T06:14:53.933Z,8.07
2023-05-17T06:17:21.516Z,8.19
2023-05-17T06:19:49.336Z,8.54
2023-05-17T06:22:16.429Z,8.50
2023-05-17T06:24:43.173Z,8.46
2023-05-17T06:27:09.955Z,8.54
2023-05-17T06:29:36.679Z,8.75
2023-05-17T06:32:04.207Z,8.98
2023-05-17T06:34:30.848Z,9.55
2023-05-17T06:36:57.444Z,9.37
2023-05-17T06:39:24.073Z,9.74
2023-05-17T06:41:50.878Z,10.08
2023-05-17T06:44:17.857Z,9.65
2023-05-17T06:46:44.472Z,9.85
2023-05-17T06:49:11.101Z,9.81
2023-05-17T06:51:37.881Z,9.76
2023-05-17T06:54:04.620Z,9.64
2023-05-17T06:56:31.800Z,9.83
2023-05-17T06:58:58.473Z,9.59
2023-05-17T07:01:25.897Z,9.44
2023-05-17T07:03:52.808Z,9.52
2023-05-17T07:06:19.611Z,9.49
2023-05-17T07:08:46.590Z,9.79
2023-05-17T07:11:13.207Z,10.38
2023-05-17T07:13:39.802Z,10.48
2023-05-17T07:16:10.618Z,10.35
2023-05-17T07:18:37.567Z,9.86
2023-05-17T07:21:04.636Z,9.41
2023-05-17T07:23:31.332Z,9.50
2023-05-17T07:25:57.915Z,9.87
2023-05-17T07:28:26.220Z,10.06
2023-05-17T07:30:52.829Z,10.19
2023-05-17T07:33:19.446Z,10.18
2023-05-17T07:35:46.044Z,9.80
2023-05-17T07:38:12.680Z,10.13
2023-05-17T07:40:39.333Z,10.37
2023-05-17T07:43:06.102Z,10.80
2023-05-17T07:45:32.753Z,10.91
2023-05-17T07:47:59.576Z,11.04
2023-05-17T07:50:26.654Z,11.32
2023-05-17T07:52:53.562Z,11.82
2023-05-17T07:55:21.370Z,11.92
2023-05-17T07:57:48.505Z,11.65
2023-05-17T08:00:15.817Z,11.69
2023-05-17T08:02:43.139Z,11.68
2023-05-17T08:05:10.779Z,11.25
2023-05-17T08:07:37.651Z,10.84
2023-05-17T08:10:04.541Z,11.25
2023-05-17T08:12:31.350Z,11.71
2023-05-17T08:14:58.184Z,11.36
2023-05-17T08:17:24.834Z,12.23
2023-05-17T08:19:51.758Z,12.57
2023-05-17T08:22:18.614Z,13.11
2023-05-17T08:24:46.782Z,12.69
2023-05-17T08:27:13.345Z,13.61
2023-05-17T08:29:40.137Z,14.12
2023-05-17T08:32:07.170Z,14.11
2023-05-17T08:34:34.168Z,13.26
2023-05-17T08:37:01.221Z,12.71
2023-05-17T08:39:27.994Z,12.27
2023-05-17T08:41:59.395Z,12.15
2023-05-17T08:44:27.245Z,12.37
2023-05-17T08:46:56.541Z,12.60
2023-05-17T08:49:25.999Z,12.39
2023-05-17T08:51:54.451Z,11.77
2023-05-17T08:54:21.106Z,12.32
2023-05-17T08:56:52.157Z,13.07
2023-05-17T08:59:22.115Z,13.29
2023-05-17T09:01:51.188Z,13.12
2023-05-17T09:04:18.186Z,12.75
2023-05-17T09:06:45.666Z,12.48
2023-05-17T09:09:12.529Z,12.41
2023-05-17T09:11:39.174Z,12.10
2023-05-17T09:14:07.570Z,12.35
2023-05-17T09:16:37.256Z,12.55
2023-05-17T09:19:07.848Z,13.16
2023-05-17T09:21:35.245Z,13.56
2023-05-17T09:24:06.964Z,14.13
2023-05-17T09:26:40.266Z,14.36
2023-05-17T09:29:16.427Z,14.29
2023-05-17T09:31:43.949Z,14.15
2023-05-17T09:34:11.105Z,13.75
2023-05-17T09:36:38.799Z,14.20
2023-05-17T09:39:07.869Z,14.52
2023-05-17T09:41:56.955Z,15.24
2023-05-17T09:44:26.564Z,15.34
2023-05-17T09:46:53.228Z,14.67
2023-05-17T09:49:19.807Z,15.06
2023-05-17T09:51:50.068Z,15.09
2023-05-17T09:54:17.953Z,14.99
2023-05-17T09:56:45.154Z,15.48
2023-05-17T09:59:13.656Z,15.44
2023-05-17T10:01:41.762Z,14.47
2023-05-17T10:04:12.492Z,14.30
2023-05-17T10:09:14.014Z,13.94
2023-05-17T10:11:44.259Z,14.11
2023-05-17T10:14:33.836Z,13.70
2023-05-17T10:17:02.990Z,13.94
2023-05-17T10:19:30.580Z,14.13
2023-05-17T10:22:05.120Z,14.28
2023-05-17T10:24:46.611Z,14.74
2023-05-17T10:27:13.682Z,15.44
2023-05-17T10:29:41.378Z,15.88
2023-05-17T10:32:08.598Z,16.02
2023-05-17T10:34:38.312Z,16.18
2023-05-17T10:37:05.907Z,16.03
2023-05-17T10:39:34.954Z,16.84
2023-05-17T10:42:14.169Z,17.04
2023-05-17T10:44:42.158Z,17.65
2023-05-17T10:47:11.229Z,17.21
2023-05-17T10:49:45.064Z,17.36
2023-05-17T10:52:23.758Z,16.09
2023-05-17T10:54:51.795Z,16.14
2023-05-17T10:57:21.528Z,16.76
2023-05-17T10:59:59.684Z,17.38
2023-05-17T11:02:28.171Z,18.09
2023-05-17T11:04:57.698Z,18.22
2023-05-17T11:07:27.934Z,17.20
2023-05-17T11:10:08.492Z,16.69
2023-05-17T11:12:40.213Z,15.47
2023-05-17T11:15:17.682Z,15.57
2023-05-17T11:17:44.586Z,14.82
2023-05-17T11:20:26.801Z,15.02
2023-05-17T11:23:00.830Z,15.36
2023-05-17T11:25:36.262Z,16.02
2023-05-17T11:28:10.203Z,15.96
2023-05-17T11:30:43.716Z,15.14
2023-05-17T11:33:21.198Z,15.28
2023-05-17T11:35:57.437Z,15.11
2023-05-17T11:38:30.282Z,15.05
2023-05-17T11:40:57.791Z,15.28
2023-05-17T11:43:27.345Z,15.33
2023-05-17T11:46:01.567Z,15.58
2023-05-17T11:48:30.552Z,15.73
2023-05-17T11:50:58.924Z,15.48
2023-05-17T11:53:28.437Z,16.03
2023-05-17T11:55:56.053Z,16.39
2023-05-17T11:58:27.066Z,16.60
2023-05-17T12:00:55.024Z,16.44
2023-05-17T12:03:24.726Z,15.86
2023-05-17T12:06:09.694Z,15.62
2023-05-17T12:08:38.592Z,15.61
2023-05-17T12:11:07.636Z,16.90
2023-05-17T12:13:35.662Z,16.61
2023-05-17T12:16:07.296Z,16.04
2023-05-17T12:18:41.105Z,15.87
2023-05-17T12:21:09.263Z,16.02
2023-05-17T12:23:40.599Z,16.23
2023-05-17T12:26:16.287Z,16.53
2023-05-17T12:28:45.075Z,15.90
2023-05-17T12:31:18.546Z,15.89
2023-05-17T12:33:47.925Z,15.51
2023-05-17T12:36:15.618Z,15.61
2023-05-17T12:38:43.638Z,15.76
2023-05-17T12:41:12.860Z,15.97
2023-05-17T12:43:40.763Z,17.58
2023-05-17T12:46:07.896Z,18.77
2023-05-17T12:48:38.984Z,19.25
2023-05-17T12:51:11.748Z,19.69
2023-05-17T12:53:43.642Z,19.63
2023-05-17T12:56:22.645Z,18.55
2023-05-17T12:59:04.675Z,17.34
2023-05-17T13:01:39.964Z,16.21
2023-05-17T13:04:06.758Z,15.43
2023-05-17T13:06:51.122Z,15.24
2023-05-17T13:09:19.475Z,14.96
2023-05-17T13:11:53.718Z,14.90
2023-05-17T13:14:47.230Z,15.08
2023-05-17T13:17:35.411Z,15.46
2023-05-17T13:20:02.836Z,16.99
2023-05-17T13:22:29.573Z,16.12
2023-05-17T13:24:56.464Z,15.88
2023-05-17T13:27:23.210Z,15.90
2023-05-17T13:29:50.200Z,14.90
2023-05-17T13:32:16.792Z,14.25
2023-05-17T13:34:43.628Z,14.37
2023-05-17T13:37:12.399Z,15.66
2023-05-17T13:39:41.720Z,15.87
2023-05-17T13:42:08.863Z,16.14
2023-05-17T13:44:35.541Z,16.34
2023-05-17T13:47:02.249Z,15.87
2023-05-17T13:49:29.042Z,15.83
2023-05-17T13:51:56.593Z,15.96
2023-05-17T13:54:24.254Z,16.06
2023-05-17T13:56:51.181Z,15.66
2023-05-17T13:59:17.828Z,15.44
2023-05-17T14:01:45.259Z,15.52
2023-05-17T14:04:12.208Z,15.36
2023-05-17T14:06:39.187Z,15.25
2023-05-17T14:09:06.312Z,14.79
2023-05-17T14:11:33.531Z,14.71
2023-05-17T14:14:01.229Z,15.50
2023-05-17T14:16:28.040Z,17.62
2023-05-17T14:18:54.899Z,18.92
2023-05-17T14:21:21.536Z,19.75
2023-05-17T14:23:48.450Z,20.66
2023-05-17T14:26:16.133Z,21.44
2023-05-17T14:28:42.982Z,21.05
2023-05-17T14:31:10.814Z,21.01
2023-05-17T14:33:37.733Z,21.86
2023-05-17T14:36:04.812Z,21.97
2023-05-17T14:38:31.752Z,22.39
2023-05-17T14:41:00.713Z,22.37
2023-05-17T14:43:28.898Z,23.33
2023-05-17T14:45:55.676Z,23.43
2023-05-17T14:48:22.615Z,22.78
2023-05-17T14:50:49.556Z,23.80
2023-05-17T14:53:16.593Z,22.47
2023-05-17T14:55:43.417Z,21.12
2023-05-17T14:58:13.159Z,19.70
2023-05-17T15:00:41.985Z,18.78
2023-05-17T15:03:09.259Z,18.04
2023-05-17T15:05:36.401Z,17.28
2023-05-17T15:08:03.121Z,16.54
2023-05-17T15:10:30.028Z,16.00
2023-05-17T15:12:57.014Z,15.80
2023-05-17T15:15:23.715Z,15.67
2023-05-17T15:17:50.588Z,15.12
2023-05-17T15:20:18.390Z,15.02
2023-05-17T15:22:45.132Z,15.17
2023-05-17T15:25:11.905Z,15.13
2023-05-17T15:27:38.514Z,14.93
2023-05-17T15:30:05.861Z,14.75
2023-05-17T15:32:33.888Z,14.83
2023-05-17T15:35:00.679Z,14.55
2023-05-17T15:37:27.845Z,14.61
2023-05-17T15:39:54.423Z,14.35
2023-05-17T15:42:21.149Z,13.98
2023-05-17T15:44:47.850Z,13.54
2023-05-17T15:47:14.677Z,13.27
2023-05-17T15:49:41.550Z,13.17
2023-05-17T15:52:08.936Z,13.03
2023-05-17T15:54:35.565Z,12.87
2023-05-17T15:57:02.471Z,12.62
2023-05-17T15:59:29.217Z,12.60
2023-05-17T16:01:55.838Z,12.63
2023-05-17T16:04:22.552Z,12.68
2023-05-17T16:06:49.541Z,12.46
2023-05-17T16:09:16.756Z,12.50
2023-05-17T16:11:43.771Z,12.52
2023-05-17T16:14:10.473Z,12.69
2023-05-17T16:16:51.573Z,12.80
2023-05-17T16:19:19.646Z,12.93
2023-05-17T16:21:49.226Z,13.52
2023-05-17T16:24:17.439Z,14.45
2023-05-17T16:26:44.352Z,14.35
2023-05-17T16:29:13.840Z,14.24
2023-05-17T16:31:40.629Z,13.49
2023-05-17T16:34:07.456Z,13.06
2023-05-17T16:36:34.115Z,12.72
2023-05-17T16:39:00.780Z,12.47
2023-05-17T16:41:28.819Z,12.26
2023-05-17T16:43:55.560Z,12.12
2023-05-17T16:46:24.682Z,11.95
2023-05-17T16:48:53.378Z,11.87
2023-05-17T16:51:20.065Z,11.78
2023-05-17T16:53:46.776Z,11.62
2023-05-17T16:56:13.624Z,11.44
2023-05-17T16:58:41.112Z,11.43
2023-05-17T17:01:08.053Z,11.29
2023-05-17T17:03:34.838Z,11.20
2023-05-17T17:06:01.974Z,11.09
2023-05-17T17:08:28.683Z,11.10
2023-05-17T17:10:55.276Z,11.14
2023-05-17T17:13:21.862Z,11.11
2023-05-17T17:15:50.980Z,11.17
2023-05-17T17:18:17.782Z,11.09
2023-05-17T17:20:45.315Z,11.09
2023-05-17T17:23:12.401Z,10.91
2023-05-17T17:25:38.985Z,10.98
2023-05-17T17:28:05.724Z,10.97
2023-05-17T17:30:32.726Z,10.95
2023-05-17T17:32:59.606Z,10.92
2023-05-17T17:35:26.518Z,10.80
2023-05-17T17:37:53.270Z,10.66
2023-05-17T17:40:20.366Z,10.66
2023-05-17T17:42:47.200Z,10.66
2023-05-17T17:45:14.117Z,10.66
2023-05-17T17:47:42.276Z,10.66
2023-05-17T17:50:09.485Z,10.60
2023-05-17T17:52:37.347Z,10.57
2023-05-17T17:55:04.578Z,10.51
2023-05-17T17:57:32.099Z,10.43
2023-05-17T17:59:58.783Z,10.39
2023-05-17T18:02:25.979Z,10.40
2023-05-17T18:04:52.633Z,10.35
2023-05-17T18:07:19.441Z,10.24
2023-05-17T18:09:46.210Z,10.09
2023-05-17T18:12:12.961Z,10.04
2023-05-17T18:14:39.547Z,10.08
2023-05-17T18:17:08.239Z,9.98
2023-05-17T18:19:35.001Z,9.91
2023-05-17T18:22:02.401Z,9.88
2023-05-17T18:24:29.110Z,9.83
2023-05-17T18:26:55.850Z,9.78
2023-05-17T18:29:22.592Z,9.64
2023-05-17T18:31:49.295Z,9.62
2023-05-17T18:34:16.191Z,9.57
2023-05-17T18:36:42.826Z,9.62
2023-05-17T18:39:10.118Z,9.63
2023-05-17T18:41:36.928Z,9.51
2023-05-17T18:44:03.873Z,9.52
2023-05-17T18:46:30.748Z,9.49
2023-05-17T18:48:57.705Z,9.47
2023-05-17T18:51:24.690Z,9.47
2023-05-17T18:53:51.560Z,9.46
2023-05-17T18:56:22.670Z,9.39
2023-05-17T18:58:55.506Z,9.36
2023-05-17T19:01:22.521Z,9.25
2023-05-17T19:03:51.513Z,9.24
2023-05-17T19:06:19.907Z,9.22
2023-05-17T19:08:46.790Z,9.38
2023-05-17T19:11:13.532Z,9.24
2023-05-17T19:13:40.335Z,9.23
2023-05-17T19:16:07.682Z,9.22
2023-05-17T19:18:34.477Z,9.11
2023-05-17T19:21:01.785Z,9.07
2023-05-17T19:23:32.016Z,9.01
2023-05-17T19:25:59.309Z,8.92
2023-05-17T19:28:26.113Z,8.95
2023-05-17T19:30:52.872Z,8.97
2023-05-17T19:33:19.796Z,8.95
2023-05-17T19:35:46.861Z,8.92
2023-05-17T19:38:13.652Z,8.80
2023-05-17T19:40:41.301Z,8.82
2023-05-17T19:43:08.040Z,8.91
2023-05-17T19:45:34.650Z,8.88
2023-05-17T19:48:02.318Z,8.83
2023-05-17T19:50:29.677Z,8.81
2023-05-17T19:52:56.655Z,8.81
2023-05-17T19:55:24.676Z,8.81
2023-05-17T19:57:51.456Z,8.80
2023-05-17T20:00:18.592Z,8.78
2023-05-17T20:02:47.335Z,8.82
2023-05-17T20:05:17.083Z,8.69
2023-05-17T20:07:44.029Z,8.74
2023-05-17T20:10:11.304Z,8.69
2023-05-17T20:12:38.675Z,8.60
2023-05-17T20:15:06.521Z,8.62
2023-05-17T20:17:33.512Z,8.65
2023-05-17T20:20:00.421Z,8.57
2023-05-17T20:22:27.188Z,8.51
2023-05-17T20:24:55.802Z,8.54
2023-05-17T20:27:25.922Z,8.58
2023-05-17T20:29:52.637Z,8.57
2023-05-17T20:32:19.350Z,8.58
2023-05-17T20:34:46.549Z,8.58
2023-05-17T20:37:13.206Z,8.45
2023-05-17T20:39:39.942Z,8.38
2023-05-17T20:42:08.394Z,8.40
2023-05-17T20:44:35.862Z,8.40
2023-05-17T20:47:04.857Z,8.32
2023-05-17T20:49:31.899Z,8.28
2023-05-17T20:52:02.683Z,8.33
2023-05-17T20:54:30.582Z,8.37
2023-05-17T20:56:58.183Z,8.39
2023-05-17T20:59:25.865Z,8.29
2023-05-17T21:01:53.093Z,8.30
2023-05-17T21:04:19.877Z,8.33
2023-05-17T21:06:46.931Z,8.29
2023-05-17T21:09:14.035Z,8.23
2023-05-17T21:11:41.022Z,8.21
2023-05-17T21:14:07.694Z,8.20
2023-05-17T21:16:35.432Z,8.22
2023-05-17T21:19:02.531Z,8.19
2023-05-17T21:21:29.285Z,8.09
2023-05-17T21:23:56.001Z,8.09
2023-05-17T21:26:23.268Z,8.01
2023-05-17T21:28:50.022Z,7.90
2023-05-17T21:31:16.862Z,7.95
2023-05-17T21:33:46.636Z,8.00
2023-05-17T21:36:13.220Z,7.95
2023-05-17T21:38:40.112Z,7.83
2023-05-17T21:41:06.799Z,7.76
2023-05-17T21:43:33.506Z,7.61
2023-05-17T21:46:00.193Z,7.58
2023-05-17T21:48:26.983Z,7.48
2023-05-17T21:50:53.747Z,7.33
2023-05-17T21:53:20.682Z,7.22
2023-05-17T21:58:20.433Z,7.13
2023-05-17T22:00:47.492Z,7.02
2023-05-17T22:03:14.185Z,6.93
2023-05-17T22:05:40.983Z,6.80
2023-05-17T22:08:07.747Z,6.79
2023-05-17T22:10:34.493Z,6.73
2023-05-17T22:13:02.230Z,6.60
2023-05-17T22:15:28.963Z,6.62
2023-05-17T22:17:55.878Z,6.56
2023-05-17T22:20:23.894Z,6.55
2023-05-17T22:22:50.715Z,6.55
2023-05-17T22:25:17.884Z,6.50
2023-05-17T22:27:45.411Z,6.40
2023-05-17T22:30:12.338Z,6.29
2023-05-17T22:32:40.245Z,6.24
2023-05-17T22:35:07.293Z,6.21
2023-05-17T22:37:34.055Z,6.20
2023-05-17T22:40:00.805Z,6.17
2023-05-17T22:42:27.614Z,6.18
2023-05-17T22:44:54.328Z,6.34
2023-05-17T22:47:23.104Z,6.40
2023-05-17T22:49:52.730Z,6.46
2023-05-17T22:52:19.828Z,6.54
2023-05-17T22:54:46.488Z,6.66
2023-05-17T22:57:13.324Z,6.73
2023-05-17T22:59:40.091Z,6.80
2023-05-17T23:02:06.925Z,6.87
2023-05-17T23:04:33.707Z,6.93
2023-05-17T23:07:02.166Z,6.99
2023-05-17T23:09:33.921Z,7.02
2023-05-17T23:12:05.506Z,6.99
2023-05-17T23:14:36.357Z,7.00
2023-05-17T23:17:04.151Z,7.03
2023-05-17T23:19:33.303Z,6.99
2023-05-17T23:22:03.508Z,6.97
2023-05-17T23:24:30.345Z,7.01
2023-05-17T23:26:57.651Z,7.01
2023-05-17T23:29:26.023Z,6.94
2023-05-17T23:31:53.298Z,6.93
2023-05-17T23:34:20.397Z,6.91
2023-05-17T23:36:47.188Z,6.80
2023-05-17T23:39:13.779Z,6.69
2023-05-17T23:41:40.624Z,6.54
2023-05-17T23:44:07.893Z,6.45
2023-05-17T23:46:34.858Z,6.37
2023-05-17T23:49:02.413Z,6.30
2023-05-17T23:51:29.262Z,6.19
2023-05-17T23:53:56.326Z,6.12
2023-05-17T23:56:23.270Z,6.09
2023-05-17T23:58:50.128Z,5.96
